October 1, 2022

Time Code Weather Temp. Visibility Ceiling Wind METAR/SPECI
03:00
V
6 °C 9 mi - Var 000° 0 kt METAR CYOO 010700Z AUTO 00000KT 9SM CLR 06/05 A3018 RMK SLP224
02:00
V
7 °C 9 mi - Var Var 2 kt METAR CYOO 010600Z AUTO VRB02KT 9SM CLR 07/05 A3018 RMK SLP224
01:00
V
8 °C 9 mi - 010° 010° 2 kt METAR CYOO 010500Z AUTO 01002KT 9SM CLR 08/05 A3020 RMK SLP231
00:00
V
8 °C 9 mi - 350° 350° 2 kt METAR CYOO 010400Z AUTO 35002KT 9SM CLR 08/05 A3020 RMK SLP232

September 30, 2022

Time Code Weather Temp. Visibility Ceiling Wind METAR/SPECI
23:00
V
8 °C 9 mi - 010° 010° 4 kt METAR CYOO 010300Z AUTO 01004KT 9SM CLR 08/06 A3020 RMK SLP233
22:00
V
8 °C 9 mi - 350° 350° 3 kt METAR CYOO 010200Z AUTO 35003KT 9SM CLR 08/06 A3022 RMK SLP238
21:00
V
8 °C 9 mi - 010° 010° 2 kt METAR CYOO 010100Z AUTO 01002KT 9SM CLR 08/06 A3023 RMK SLP240
20:00
V
9 °C 9 mi - 360° 360° 2 kt METAR CYOO 010000Z AUTO 36002KT 9SM CLR 09/06 A3023 RMK SLP242
19:07
V
13 °C 7 mi - 210° 210° 2 kt METAR CYOO 302307Z AUTO 21002KT 7SM CLR 13/05 A3023 RMK SLP242
18:59
V
13 °C 5 mi - Var Var 2 kt METAR CYOO 302259Z AUTO VRB02KT 5SM HZ CLR 13/06 A3023 RMK SLP242
18:00
V
14 °C 9 mi - 180° 180° 4 kt METAR CYOO 302200Z AUTO 18004KT 9SM CLR 14/05 A3023 RMK SLP244
17:00
V
15 °C 9 mi - 170° 170° 3 kt METAR CYOO 302100Z AUTO 17003KT 120V210 9SM CLR 15/04 A3025 RMK SLP247
16:00
V
16 °C 9 mi - 170° 170° 7 kt METAR CYOO 302000Z AUTO 17007KT 140V210 9SM CLR 16/05 A3027 RMK SLP254
15:00
V
16 °C 9 mi - 170° 170° 7 kt METAR CYOO 301900Z AUTO 17007KT 9SM CLR 16/04 A3029 RMK SLP262
14:00
V
16 °C 9 mi - 150° 150° 6 kt METAR CYOO 301800Z AUTO 15006KT 130V210 9SM CLR 16/05 A3031 RMK SLP269
13:00
V
16 °C 9 mi - 180° 180° 6 kt METAR CYOO 301700Z AUTO 18006KT 130V200 9SM CLR 16/03 A3034 RMK SLP278
12:00
V
16 °C 9 mi - 170° 170° 6 kt METAR CYOO 301600Z AUTO 17006KT 9SM CLR 16/04 A3036 RMK SLP286
11:00
V
15 °C 9 mi - Var Var 3 kt METAR CYOO 301500Z AUTO VRB03KT 9SM CLR 15/04 A3038 RMK SLP292
10:00
V
14 °C 9 mi - Var 000° 0 kt METAR CYOO 301400Z AUTO 00000KT 9SM CLR 14/05 A3038 RMK SLP293
09:00
V
10 °C 9 mi - 360° 360° 3 kt METAR CYOO 301300Z AUTO 36003KT 340V060 9SM CLR 10/06 A3039 RMK SLP296
08:00
V
5 °C 9 mi - 010° 010° 3 kt METAR CYOO 301200Z AUTO 01003KT 9SM CLR 05/04 A3039 RMK SLP297
07:00
V
3 °C 9 mi - 010° 010° 4 kt METAR CYOO 301100Z AUTO 01004KT 9SM CLR 03/03 A3038 RMK SLP294
06:00
V
3 °C 9 mi - 020° 020° 3 kt METAR CYOO 301000Z AUTO 02003KT 9SM CLR 03/03 A3038 RMK SLP295
05:00
V
4 °C 9 mi - 020° 020° 3 kt METAR CYOO 300900Z AUTO 02003KT 360V130 9SM CLR 04/03 A3038 RMK SLP293
04:00
V
4 °C 9 mi - 010° 010° 3 kt METAR CYOO 300800Z AUTO 01003KT 9SM CLR 04/03 A3038 RMK SLP293
03:00
V
3 °C 9 mi - 010° 010° 3 kt METAR CYOO 300700Z AUTO 01003KT 9SM CLR 03/03 A3039 RMK SLP296
02:00
V
4 °C 9 mi - 020° 020° 4 kt METAR CYOO 300600Z AUTO 02004KT 9SM CLR 04/03 A3039 RMK SLP297
01:00
V
5 °C 9 mi - 010° 010° 3 kt METAR CYOO 300500Z AUTO 01003KT 9SM CLR 05/04 A3040 RMK SLP298
00:00
V
5 °C 9 mi - Var 000° 0 kt METAR CYOO 300400Z AUTO 00000KT 9SM CLR 05/04 A3040 RMK SLP301

September 29, 2022

Time Code Weather Temp. Visibility Ceiling Wind METAR/SPECI
23:00
V
5 °C 9 mi - 360° 360° 3 kt METAR CYOO 300300Z AUTO 36003KT 9SM CLR 05/05 A3041 RMK SLP305
22:00
V
6 °C 9 mi - 020° 020° 2 kt METAR CYOO 300200Z AUTO 02002KT 9SM CLR 06/05 A3041 RMK SLP304
21:00
V
6 °C 9 mi - 010° 010° 3 kt METAR CYOO 300100Z AUTO 01003KT 9SM CLR 06/05 A3041 RMK SLP303
20:00
V
9 °C 9 mi - Var 000° 0 kt METAR CYOO 300000Z AUTO 00000KT 9SM CLR 09/06 A3041 RMK SLP305
19:00
V
12 °C 9 mi - 210° 210° 4 kt METAR CYOO 292300Z AUTO 21004KT 9SM CLR 12/06 A3042 RMK SLP306
18:00
V
13 °C 9 mi - 190° 190° 5 kt METAR CYOO 292200Z AUTO 19005KT 9SM CLR 13/06 A3042 RMK SLP306
17:00
V
14 °C 9 mi - 180° 180° 8 kt METAR CYOO 292100Z AUTO 18008KT 9SM CLR 14/06 A3042 RMK SLP308
16:00
V
15 °C 9 mi - 200° 200° 9 kt METAR CYOO 292000Z AUTO 20009KT 9SM CLR 15/06 A3043 RMK SLP311
15:00
V
16 °C 9 mi - 330° 330° 9 kt METAR CYOO 291900Z AUTO 33009KT 280V360 9SM CLR 16/01 A3044 RMK SLP313
14:00
V
15 °C 9 mi - 330° 330° 3 kt METAR CYOO 291800Z AUTO 33003KT 290V360 9SM CLR 15/02 A3047 RMK SLP323
13:00
V
14 °C 9 mi - 320° 320° 9 kt METAR CYOO 291700Z AUTO 32009KT 260V330 9SM CLR 14/03 A3049 RMK SLP329
12:00
V
13 °C 9 mi - 330° 330° 9 - 16 kt METAR CYOO 291600Z AUTO 33009G16KT 9SM CLR 13/02 A3050 RMK SLP334
11:00
V
12 °C 9 mi - 350° 350° 9 kt METAR CYOO 291500Z AUTO 35009KT 300V360 9SM CLR 12/04 A3051 RMK SLP336
10:00
V
11 °C 9 mi - 360° 360° 5 kt METAR CYOO 291400Z AUTO 36005KT 320V040 9SM CLR 11/04 A3052 RMK SLP338
09:00
V
8 °C 9 mi - 020° 020° 4 kt METAR CYOO 291300Z AUTO 02004KT 9SM CLR 08/05 A3051 RMK SLP338
08:00
V
4 °C 9 mi - 010° 010° 2 kt METAR CYOO 291200Z AUTO 01002KT 9SM CLR 04/03 A3050 RMK SLP333
07:00
V
2 °C 9 mi - 020° 020° 5 kt METAR CYOO 291100Z AUTO 02005KT 9SM CLR 02/02 A3048 RMK SLP327
06:00
V
2 °C 9 mi - 010° 010° 4 kt METAR CYOO 291000Z AUTO 01004KT 9SM CLR 02/02 A3047 RMK SLP325
05:00
V
4 °C 9 mi - 310° 310° 3 kt METAR CYOO 290900Z AUTO 31003KT 9SM CLR 04/03 A3046 RMK SLP321
04:00
V
4 °C 9 mi - 320° 320° 3 kt METAR CYOO 290800Z AUTO 32003KT 9SM CLR 04/03 A3044 RMK SLP315
03:00
V
5 °C 9 mi - 350° 350° 4 kt METAR CYOO 290700Z AUTO 35004KT 9SM CLR 05/04 A3043 RMK SLP311
Older data

We and third parties follow your internet behavior on our website with cookies. If you continue, we assume you agree with our cookie policy. Learn more